createdAt,value
2022-12-03T00:16:52.683Z,3.97
2022-12-03T00:19:31.329Z,4.47
2022-12-03T00:22:02.046Z,4.59
2022-12-03T00:24:34.637Z,4.73
2022-12-03T00:29:57.115Z,4.25
2022-12-03T00:32:24.015Z,4.47
2022-12-03T00:34:50.702Z,4.45
2022-12-03T00:37:17.402Z,4.49
2022-12-03T00:39:43.950Z,4.75
2022-12-03T00:42:10.658Z,4.63
2022-12-03T00:48:29.849Z,4.01
2022-12-03T00:50:56.398Z,4.07
2022-12-03T00:53:22.920Z,4.34
2022-12-03T00:55:50.698Z,4.54
2022-12-03T00:58:18.049Z,4.24
2022-12-03T01:00:44.657Z,4.24
2022-12-03T01:03:11.318Z,4.07
2022-12-03T01:05:37.940Z,4.22
2022-12-03T01:08:04.753Z,4.78
2022-12-03T01:10:31.427Z,5.05
2022-12-03T01:12:57.946Z,4.90
2022-12-03T01:15:24.493Z,4.31
2022-12-03T01:17:51.017Z,4.67
2022-12-03T01:20:17.713Z,4.72
2022-12-03T01:22:44.869Z,4.93
2022-12-03T01:25:11.571Z,5.18
2022-12-03T01:27:38.144Z,5.23
2022-12-03T01:30:05.952Z,4.99
2022-12-03T01:32:32.538Z,4.78
2022-12-03T01:34:59.128Z,5.21
2022-12-03T01:37:26.747Z,4.53
2022-12-03T01:39:53.699Z,4.90
2022-12-03T01:42:30.213Z,4.91
2022-12-03T01:44:59.077Z,5.01
2022-12-03T01:47:30.867Z,4.99
2022-12-03T01:50:30.160Z,4.82
2022-12-03T01:53:00.089Z,5.07
2022-12-03T01:55:26.828Z,5.38
2022-12-03T01:57:57.287Z,4.89
2022-12-03T02:00:29.279Z,4.95
2022-12-03T02:03:07.401Z,4.63
2022-12-03T02:05:34.513Z,4.90
2022-12-03T02:08:01.308Z,4.83
2022-12-03T02:10:33.542Z,4.69
2022-12-03T02:13:05.085Z,4.49
2022-12-03T02:15:31.841Z,4.74
2022-12-03T02:17:59.758Z,4.64
2022-12-03T02:20:26.666Z,5.03
2022-12-03T02:22:53.128Z,4.22
2022-12-03T02:25:23.135Z,4.65
2022-12-03T02:27:50.957Z,4.82
2022-12-03T02:30:20.819Z,5.00
2022-12-03T02:32:48.993Z,4.80
2022-12-03T02:35:18.460Z,4.54
2022-12-03T02:37:47.667Z,4.37
2022-12-03T02:40:19.898Z,4.39
2022-12-03T02:42:47.713Z,4.76
2022-12-03T02:45:22.592Z,5.11
2022-12-03T02:47:52.718Z,5.29
2022-12-03T02:50:24.064Z,4.73
2022-12-03T02:52:53.355Z,5.04
2022-12-03T02:55:20.899Z,4.98
2022-12-03T02:57:50.156Z,5.15
2022-12-03T03:00:17.847Z,5.05
2022-12-03T03:19:38.270Z,4.92
2022-12-03T03:22:04.906Z,5.04
2022-12-03T03:24:32.536Z,4.60
2022-12-03T03:26:59.148Z,4.77
2022-12-03T03:29:25.765Z,5.32
2022-12-03T03:31:52.481Z,4.99
2022-12-03T03:34:19.088Z,4.01
2022-12-03T03:36:46.596Z,4.48
2022-12-03T03:39:13.943Z,5.12
2022-12-03T03:41:41.197Z,5.10
2022-12-03T03:44:08.929Z,5.47
2022-12-03T03:46:37.048Z,5.30
2022-12-03T03:49:05.690Z,4.93
2022-12-03T03:51:34.646Z,4.95
2022-12-03T03:54:03.956Z,4.97
2022-12-03T03:56:30.700Z,3.69
2022-12-03T03:58:57.262Z,4.52
2022-12-03T04:01:24.371Z,4.20
2022-12-03T04:03:50.993Z,4.85
2022-12-03T04:06:17.789Z,4.47
2022-12-03T04:08:44.478Z,4.22
2022-12-03T04:11:29.612Z,4.75
2022-12-03T04:13:56.139Z,4.31
2022-12-03T04:16:22.710Z,3.71
2022-12-03T04:18:49.365Z,3.07
2022-12-03T04:21:36.857Z,3.90
2022-12-03T04:24:04.366Z,3.50
2022-12-03T04:26:49.619Z,4.27
2022-12-03T04:29:16.239Z,3.96
2022-12-03T04:32:23.523Z,3.14
2022-12-03T04:35:08.869Z,3.98
2022-12-03T04:37:35.873Z,3.92
2022-12-03T04:40:02.407Z,3.96
2022-12-03T04:46:47.508Z,3.49
2022-12-03T04:49:14.035Z,3.85
2022-12-03T04:51:40.594Z,4.11
2022-12-03T04:54:11.613Z,4.53
2022-12-03T04:56:38.202Z,4.34
2022-12-03T04:59:04.917Z,3.58
2022-12-03T05:01:31.576Z,3.50
2022-12-03T05:03:58.385Z,3.51
2022-12-03T05:06:24.984Z,3.36
2022-12-03T05:08:51.530Z,2.93
2022-12-03T05:11:18.403Z,2.45
2022-12-03T05:13:44.923Z,2.86
2022-12-03T05:16:11.476Z,3.05
2022-12-03T05:18:38.152Z,3.13
2022-12-03T05:21:04.762Z,3.60
2022-12-03T05:23:31.359Z,2.55
2022-12-03T05:25:57.902Z,3.43
2022-12-03T05:28:24.506Z,4.14
2022-12-03T05:30:52.052Z,4.27
2022-12-03T05:33:18.696Z,4.14
2022-12-03T05:35:45.237Z,4.28
2022-12-03T05:38:11.840Z,3.59
2022-12-03T05:40:38.441Z,4.11
2022-12-03T05:43:05.169Z,3.62
2022-12-03T05:45:35.582Z,4.18
2022-12-03T05:48:03.646Z,4.62
2022-12-03T05:50:33.399Z,4.48
2022-12-03T05:53:00.388Z,4.80
2022-12-03T05:55:27.927Z,4.30
2022-12-03T05:57:54.711Z,4.35
2022-12-03T06:00:26.480Z,4.40
2022-12-03T06:02:54.284Z,4.70
2022-12-03T06:05:21.862Z,4.68
2022-12-03T06:07:50.072Z,4.71
2022-12-03T06:10:22.650Z,4.44
2022-12-03T06:12:49.654Z,4.63
2022-12-03T06:15:16.708Z,3.91
2022-12-03T06:17:43.291Z,4.48
2022-12-03T06:20:14.154Z,4.63
2022-12-03T06:22:40.823Z,4.64
2022-12-03T06:25:10.069Z,4.52
2022-12-03T06:27:36.836Z,4.76
2022-12-03T06:30:05.273Z,4.71
2022-12-03T06:32:31.878Z,4.93
2022-12-03T06:34:58.447Z,4.49
2022-12-03T06:37:25.040Z,4.89
2022-12-03T06:39:51.581Z,5.08
2022-12-03T06:42:18.162Z,4.31
2022-12-03T06:44:44.692Z,4.71
2022-12-03T06:47:11.276Z,5.21
2022-12-03T06:49:37.976Z,4.81
2022-12-03T06:52:04.639Z,4.90
2022-12-03T06:54:31.307Z,4.71
2022-12-03T06:56:57.871Z,5.05
2022-12-03T06:59:24.436Z,5.10
2022-12-03T07:01:51.040Z,4.85
2022-12-03T07:04:17.643Z,5.21
2022-12-03T07:06:44.241Z,5.05
2022-12-03T07:09:10.942Z,4.95
2022-12-03T07:11:40.776Z,4.96
2022-12-03T07:14:09.160Z,4.60
2022-12-03T07:16:36.172Z,3.75
2022-12-03T07:19:05.247Z,4.44
2022-12-03T07:21:32.263Z,4.54
2022-12-03T07:23:58.809Z,4.47
2022-12-03T07:26:25.368Z,4.47
2022-12-03T07:31:35.723Z,5.16
2022-12-03T07:34:02.351Z,5.13
2022-12-03T07:36:28.939Z,5.02
2022-12-03T07:38:55.517Z,4.62
2022-12-03T07:41:27.004Z,4.68
2022-12-03T07:43:53.579Z,5.17
2022-12-03T07:46:20.213Z,4.84
2022-12-03T07:54:31.570Z,5.42
2022-12-03T07:57:01.967Z,5.63
2022-12-03T08:00:00.239Z,5.02
2022-12-03T08:02:46.889Z,5.33
2022-12-03T08:05:14.132Z,5.78
2022-12-03T08:07:41.206Z,5.67
2022-12-03T08:10:08.008Z,5.55
2022-12-03T08:12:41.241Z,5.21
2022-12-03T08:15:18.867Z,4.82
2022-12-03T08:17:51.066Z,5.01
2022-12-03T08:23:21.630Z,5.68
2022-12-03T08:25:51.539Z,5.35
2022-12-03T08:28:19.622Z,5.32
2022-12-03T08:34:06.920Z,4.57
2022-12-03T08:36:33.804Z,4.39
2022-12-03T08:39:05.562Z,4.88
2022-12-03T08:42:14.188Z,4.38
2022-12-03T08:44:41.208Z,4.45
2022-12-03T08:49:50.488Z,5.13
2022-12-03T08:52:20.902Z,4.22
2022-12-03T08:54:54.423Z,4.39
2022-12-03T08:57:28.540Z,4.46
2022-12-03T09:00:16.889Z,5.09
2022-12-03T09:02:49.800Z,5.16
2022-12-03T09:05:21.103Z,5.27
2022-12-03T09:07:47.782Z,5.26
2022-12-03T09:10:14.842Z,5.46
2022-12-03T09:12:41.407Z,5.15
2022-12-03T09:15:08.430Z,4.62
2022-12-03T09:17:35.005Z,4.75
2022-12-03T09:20:01.769Z,5.74
2022-12-03T09:22:31.795Z,5.67
2022-12-03T09:24:58.351Z,5.55
2022-12-03T09:27:24.914Z,6.01
2022-12-03T09:29:51.524Z,6.24
2022-12-03T09:32:18.966Z,6.43
2022-12-03T09:34:46.459Z,5.21
2022-12-03T09:37:13.014Z,5.84
2022-12-03T09:39:39.764Z,5.17
2022-12-03T09:42:06.340Z,5.96
2022-12-03T09:44:34.450Z,6.32
2022-12-03T09:47:02.717Z,6.01
2022-12-03T09:49:31.987Z,6.24
2022-12-03T09:52:01.815Z,7.09
2022-12-03T09:54:30.168Z,7.07
2022-12-03T09:56:59.324Z,7.40
2022-12-03T09:59:31.436Z,7.15
2022-12-03T10:01:58.370Z,7.64
2022-12-03T10:04:28.433Z,6.79
2022-12-03T10:06:57.440Z,6.87
2022-12-03T10:09:27.245Z,6.53
2022-12-03T10:11:56.530Z,6.58
2022-12-03T10:14:23.287Z,6.43
2022-12-03T10:19:39.642Z,6.69
2022-12-03T10:22:06.223Z,6.86
2022-12-03T10:24:42.635Z,6.44
2022-12-03T10:30:34.618Z,7.54
2022-12-03T10:33:18.497Z,7.47
2022-12-03T10:35:45.541Z,7.96
2022-12-03T10:38:17.952Z,6.85
2022-12-03T10:40:45.224Z,7.06
2022-12-03T10:43:17.839Z,6.54
2022-12-03T10:45:49.144Z,6.20
2022-12-03T10:48:29.855Z,6.74
2022-12-03T10:51:04.804Z,7.11
2022-12-03T10:53:36.130Z,6.90
2022-12-03T10:56:06.432Z,6.66
2022-12-03T11:03:44.720Z,6.83
2022-12-03T11:06:16.412Z,7.01
2022-12-03T11:08:43.863Z,7.35
2022-12-03T11:11:18.852Z,7.26
2022-12-03T11:13:47.081Z,7.71
2022-12-03T11:16:44.491Z,7.53
2022-12-03T11:19:38.175Z,7.37
2022-12-03T11:22:09.653Z,7.08
2022-12-03T11:24:38.163Z,7.46
2022-12-03T11:27:29.204Z,7.32
2022-12-03T11:30:56.561Z,7.30
2022-12-03T11:33:28.848Z,7.24
2022-12-03T11:36:04.652Z,8.13
2022-12-03T11:38:52.416Z,7.47
2022-12-03T11:41:30.671Z,6.97
2022-12-03T11:44:00.061Z,7.08
2022-12-03T11:46:46.261Z,7.98
2022-12-03T11:49:46.473Z,7.23
2022-12-03T11:52:23.957Z,7.65
2022-12-03T11:55:19.215Z,7.91
2022-12-03T11:58:58.562Z,7.49
2022-12-03T12:01:45.233Z,6.92
2022-12-03T12:04:28.701Z,7.71
2022-12-03T12:06:55.461Z,7.98
2022-12-03T12:09:50.910Z,7.80
2022-12-03T12:12:21.027Z,7.99
2022-12-03T12:17:36.792Z,8.21
2022-12-03T12:20:24.591Z,8.71
2022-12-03T12:22:53.339Z,8.62
2022-12-03T12:25:59.951Z,7.72
2022-12-03T12:29:16.286Z,8.00
2022-12-03T12:31:59.523Z,8.40
2022-12-03T12:34:26.001Z,8.43
2022-12-03T12:39:35.901Z,8.06
2022-12-03T12:42:22.415Z,7.45
2022-12-03T12:45:13.926Z,6.92
2022-12-03T12:47:59.578Z,6.66
2022-12-03T12:50:26.211Z,6.87
2022-12-03T12:52:56.909Z,6.90
2022-12-03T12:56:38.615Z,7.26
2022-12-03T12:59:33.178Z,7.39
2022-12-03T13:02:00.666Z,6.88
2022-12-03T13:04:30.589Z,7.08
2022-12-03T13:06:57.143Z,7.19
2022-12-03T13:09:25.975Z,7.08
2022-12-03T13:11:55.777Z,7.17
2022-12-03T13:14:45.234Z,7.44
2022-12-03T13:17:29.873Z,7.53
2022-12-03T13:20:06.763Z,7.37
2022-12-03T13:22:34.455Z,8.15
2022-12-03T13:26:09.276Z,7.84
2022-12-03T13:29:24.761Z,6.72
2022-12-03T13:34:47.566Z,6.96
2022-12-03T13:37:19.420Z,7.65
2022-12-03T13:39:50.439Z,7.15
2022-12-03T13:42:35.793Z,7.10
2022-12-03T13:45:03.570Z,7.49
2022-12-03T13:47:30.090Z,7.39
2022-12-03T13:50:03.624Z,7.37
2022-12-03T13:52:34.656Z,7.65
2022-12-03T13:55:02.629Z,7.74
2022-12-03T13:57:29.158Z,7.11
2022-12-03T13:59:57.101Z,6.91
2022-12-03T14:02:23.846Z,7.04
2022-12-03T14:04:54.100Z,7.45
2022-12-03T14:07:23.355Z,6.95
2022-12-03T14:09:50.215Z,6.83
2022-12-03T14:12:25.719Z,7.27
2022-12-03T14:14:52.933Z,6.47
2022-12-03T14:17:19.651Z,6.52
2022-12-03T14:19:46.205Z,7.34
2022-12-03T14:22:12.807Z,6.72
2022-12-03T14:24:42.712Z,7.15
2022-12-03T14:27:11.431Z,7.09
2022-12-03T14:29:44.764Z,6.82
2022-12-03T14:32:11.403Z,7.09
2022-12-03T14:34:37.993Z,6.98
2022-12-03T14:37:05.159Z,7.54
2022-12-03T14:39:31.749Z,7.21
2022-12-03T14:42:13.383Z,6.74
2022-12-03T14:44:41.104Z,6.53
2022-12-03T14:47:07.993Z,6.41
2022-12-03T14:49:34.994Z,6.63
2022-12-03T14:52:02.148Z,6.42
2022-12-03T14:54:28.779Z,6.40
2022-12-03T14:56:55.442Z,6.40
2022-12-03T14:59:27.355Z,6.58
2022-12-03T15:01:54.753Z,6.47
2022-12-03T15:04:21.518Z,5.79
2022-12-03T15:06:48.069Z,6.30
2022-12-03T15:09:14.722Z,6.32
2022-12-03T15:11:45.920Z,6.15
2022-12-03T15:14:13.034Z,6.15
2022-12-03T15:16:40.074Z,6.22
2022-12-03T15:19:06.818Z,6.22
2022-12-03T15:21:34.943Z,5.81
2022-12-03T15:24:02.565Z,5.83
2022-12-03T15:26:29.993Z,6.62
2022-12-03T15:28:56.545Z,6.75
2022-12-03T15:31:23.237Z,6.25
2022-12-03T15:33:49.893Z,6.22
2022-12-03T15:36:16.832Z,6.36
2022-12-03T15:38:43.413Z,5.97
2022-12-03T15:41:24.782Z,6.12
2022-12-03T15:43:52.629Z,6.45
2022-12-03T15:46:20.019Z,6.50
2022-12-03T15:48:47.100Z,6.43
2022-12-03T15:51:13.819Z,6.99
2022-12-03T15:53:41.079Z,6.95
2022-12-03T15:56:07.897Z,7.16
2022-12-03T15:58:35.099Z,7.16
2022-12-03T16:01:01.781Z,6.96
2022-12-03T16:03:28.471Z,6.93
2022-12-03T16:05:55.150Z,6.02
2022-12-03T16:08:21.821Z,6.12
2022-12-03T16:10:49.532Z,6.26
2022-12-03T16:13:16.198Z,6.90
2022-12-03T16:15:43.024Z,6.56
2022-12-03T16:18:09.592Z,6.20
2022-12-03T16:20:36.160Z,5.99
2022-12-03T16:23:02.738Z,6.44
2022-12-03T16:25:29.312Z,6.51
2022-12-03T16:27:56.563Z,6.78
2022-12-03T16:30:24.718Z,6.52
2022-12-03T16:32:51.616Z,5.96
2022-12-03T16:35:18.323Z,5.95
2022-12-03T16:37:44.902Z,6.08
2022-12-03T16:40:12.163Z,6.09
2022-12-03T16:42:39.090Z,5.66
2022-12-03T16:45:09.055Z,6.14
2022-12-03T16:47:38.710Z,6.20
2022-12-03T16:50:07.883Z,6.05
2022-12-03T16:52:35.223Z,6.19
2022-12-03T16:55:02.089Z,5.76
2022-12-03T16:57:33.665Z,5.75
2022-12-03T17:00:01.060Z,5.92
2022-12-03T17:02:27.952Z,6.22
2022-12-03T17:04:54.825Z,5.98
2022-12-03T17:07:21.447Z,5.43
2022-12-03T17:09:48.078Z,5.85
2022-12-03T17:12:14.839Z,6.41
2022-12-03T17:14:41.367Z,6.47
2022-12-03T17:17:07.993Z,6.37
2022-12-03T17:19:34.596Z,6.66
2022-12-03T17:22:01.258Z,6.25
2022-12-03T17:24:28.036Z,5.97
2022-12-03T17:26:54.576Z,6.17
2022-12-03T17:29:21.313Z,6.21
2022-12-03T17:31:48.017Z,6.20
2022-12-03T17:34:14.992Z,6.20
2022-12-03T17:36:41.547Z,6.21
2022-12-03T17:39:08.091Z,5.81
2022-12-03T17:41:34.646Z,6.08
2022-12-03T17:44:03.624Z,6.01
2022-12-03T17:46:33.989Z,5.99
2022-12-03T17:49:00.678Z,5.86
2022-12-03T17:51:27.264Z,6.08
2022-12-03T17:53:53.823Z,6.09
2022-12-03T17:56:20.740Z,6.18
2022-12-03T17:58:47.368Z,6.03
2022-12-03T18:01:14.087Z,6.04
2022-12-03T18:03:40.704Z,5.94
2022-12-03T18:06:07.652Z,6.01
2022-12-03T18:08:34.232Z,5.75
2022-12-03T18:11:01.005Z,5.97
2022-12-03T18:13:28.164Z,5.89
2022-12-03T18:15:54.933Z,5.88
2022-12-03T18:18:21.527Z,4.88
2022-12-03T18:20:48.178Z,5.26
2022-12-03T18:23:14.795Z,5.71
2022-12-03T18:25:42.090Z,5.24
2022-12-03T18:28:08.644Z,5.25
2022-12-03T18:30:35.218Z,5.54
2022-12-03T18:33:01.805Z,5.47
2022-12-03T18:35:37.306Z,5.53
2022-12-03T18:38:03.970Z,5.32
2022-12-03T18:40:30.885Z,5.47
2022-12-03T18:42:57.443Z,5.22
2022-12-03T18:45:24.077Z,5.78
2022-12-03T18:47:50.733Z,5.81
2022-12-03T18:50:17.580Z,5.78
2022-12-03T18:52:44.174Z,5.63
2022-12-03T18:55:18.555Z,5.49
2022-12-03T18:57:45.616Z,5.61
2022-12-03T19:00:13.853Z,5.22
2022-12-03T19:05:27.312Z,5.70
2022-12-03T19:07:55.596Z,5.21
2022-12-03T19:10:22.640Z,5.41
2022-12-03T19:12:49.377Z,5.51
2022-12-03T19:15:16.572Z,5.45
2022-12-03T19:17:47.311Z,5.47
2022-12-03T19:20:13.931Z,5.46
2022-12-03T19:22:40.447Z,5.20
2022-12-03T19:25:07.181Z,5.35
2022-12-03T19:27:33.801Z,5.62
2022-12-03T19:30:00.355Z,5.57
2022-12-03T19:32:26.987Z,5.25
2022-12-03T19:34:53.572Z,5.22
2022-12-03T19:37:20.111Z,5.73
2022-12-03T19:39:46.922Z,5.24
2022-12-03T19:42:13.480Z,5.21
2022-12-03T19:44:39.983Z,5.30
2022-12-03T19:47:06.681Z,5.03
2022-12-03T19:49:33.301Z,5.29
2022-12-03T19:51:59.918Z,5.27
2022-12-03T19:54:26.460Z,5.36
2022-12-03T19:56:53.039Z,4.84
2022-12-03T19:59:19.562Z,4.85
2022-12-03T20:01:46.306Z,5.09
2022-12-03T20:04:13.670Z,5.50
2022-12-03T20:06:40.454Z,4.96
2022-12-03T20:09:13.080Z,5.35
2022-12-03T20:11:41.148Z,5.42
2022-12-03T20:14:10.742Z,5.10
2022-12-03T20:16:37.564Z,5.23
2022-12-03T20:19:07.086Z,5.45
2022-12-03T20:21:36.576Z,5.83
2022-12-03T20:24:04.642Z,5.88
2022-12-03T20:26:31.451Z,5.91
2022-12-03T20:28:58.148Z,5.82
2022-12-03T20:31:30.083Z,5.69
2022-12-03T20:33:59.471Z,5.81
2022-12-03T20:36:27.051Z,5.15
2022-12-03T20:38:55.064Z,5.61
2022-12-03T20:41:21.851Z,5.84
2022-12-03T20:43:48.558Z,5.75
2022-12-03T20:46:24.014Z,5.90
2022-12-03T20:48:50.882Z,5.82
2022-12-03T20:51:20.863Z,5.26
2022-12-03T20:53:47.483Z,5.85
2022-12-03T20:56:26.170Z,5.85
2022-12-03T20:58:53.548Z,6.16
2022-12-03T21:01:29.325Z,6.28
2022-12-03T21:03:57.000Z,6.05
2022-12-03T21:06:42.013Z,5.90
2022-12-03T21:09:09.765Z,5.58
2022-12-03T21:11:39.080Z,5.50
2022-12-03T21:14:05.870Z,5.94
2022-12-03T21:19:22.662Z,5.83
2022-12-03T21:21:50.043Z,6.19
2022-12-03T21:24:16.913Z,5.96
2022-12-03T21:26:43.459Z,5.92
2022-12-03T21:29:10.291Z,6.04
2022-12-03T21:31:38.417Z,5.84
2022-12-03T21:34:05.254Z,6.17
2022-12-03T21:36:32.318Z,5.91
2022-12-03T21:39:13.930Z,5.55
2022-12-03T21:41:40.615Z,5.47
2022-12-03T21:44:27.148Z,5.28
2022-12-03T21:47:11.762Z,5.01
2022-12-03T21:49:40.167Z,5.39
2022-12-03T21:52:06.695Z,5.88
2022-12-03T21:54:33.223Z,5.74
2022-12-03T21:56:59.769Z,5.57
2022-12-03T21:59:41.401Z,5.89
2022-12-03T22:02:09.593Z,5.63
2022-12-03T22:04:36.371Z,5.52
2022-12-03T22:07:06.039Z,5.31
2022-12-03T22:09:54.880Z,6.08
2022-12-03T22:15:42.132Z,5.69
2022-12-03T22:18:08.718Z,5.72
2022-12-03T22:20:35.281Z,5.61
2022-12-03T22:25:37.061Z,5.56
2022-12-03T22:28:03.793Z,5.24
2022-12-03T22:30:30.382Z,5.42
2022-12-03T22:32:56.951Z,5.13
2022-12-03T22:35:23.474Z,5.55
2022-12-03T22:37:50.024Z,5.58
2022-12-03T22:40:35.077Z,6.08
2022-12-03T22:43:20.701Z,5.47
2022-12-03T22:45:47.365Z,5.44
2022-12-03T22:48:15.053Z,5.47
2022-12-03T22:50:45.656Z,5.78
2022-12-03T22:53:13.286Z,6.18
2022-12-03T22:55:40.595Z,6.18
2022-12-03T23:00:49.849Z,6.11
2022-12-03T23:03:16.396Z,6.05
2022-12-03T23:05:43.094Z,5.94
2022-12-03T23:08:12.960Z,6.24
2022-12-03T23:10:42.371Z,6.27
2022-12-03T23:13:33.915Z,6.00
2022-12-03T23:19:59.481Z,6.11
2022-12-03T23:22:26.053Z,5.63
2022-12-03T23:24:52.581Z,5.55
2022-12-03T23:27:19.117Z,5.68
2022-12-03T23:30:00.883Z,5.84
2022-12-03T23:32:27.432Z,5.49
2022-12-03T23:34:54.084Z,5.73
2022-12-03T23:37:20.625Z,5.85
2022-12-03T23:39:50.030Z,5.57
2022-12-03T23:42:16.559Z,5.28
2022-12-03T23:44:52.082Z,4.99
2022-12-03T23:47:18.665Z,4.85
2022-12-03T23:49:45.284Z,4.77
2022-12-03T23:52:11.889Z,5.20
2022-12-03T23:55:03.527Z,5.15
2022-12-03T23:57:57.580Z,5.12
